createdAt,value
2019-03-25T00:01:36.513Z,10.33
2019-03-25T00:04:09.367Z,10.53
2019-03-25T00:06:41.166Z,9.90
2019-03-25T00:09:12.930Z,10.13
2019-03-25T00:11:44.698Z,11.33
2019-03-25T00:14:16.440Z,10.47
2019-03-25T00:16:48.201Z,10.50
2019-03-25T00:19:19.859Z,11.17
2019-03-25T00:21:51.617Z,10.07
2019-03-25T00:24:23.802Z,10.47
2019-03-25T00:26:55.583Z,9.70
2019-03-25T00:29:27.317Z,13.33
2019-03-25T00:32:00.097Z,14.40
2019-03-25T00:34:31.756Z,17.10
2019-03-25T00:37:04.456Z,14.23
2019-03-25T00:39:35.954Z,14.13
2019-03-25T00:42:07.546Z,13.73
2019-03-25T00:44:39.046Z,15.47
2019-03-25T00:47:10.562Z,14.47
2019-03-25T00:49:42.338Z,16.00
2019-03-25T00:52:14.074Z,17.57
2019-03-25T00:54:50.254Z,17.00
2019-03-25T00:57:19.525Z,15.03
2019-03-25T00:59:51.288Z,16.07
2019-03-25T01:02:23.154Z,15.67
2019-03-25T01:04:54.899Z,15.60
2019-03-25T01:07:26.654Z,16.07
2019-03-25T01:09:58.461Z,15.73
2019-03-25T01:12:30.194Z,16.30
2019-03-25T01:15:01.971Z,16.93
2019-03-25T01:17:34.106Z,16.67
2019-03-25T01:20:06.856Z,16.50
2019-03-25T01:22:38.546Z,15.00
2019-03-25T01:25:10.838Z,16.87
2019-03-25T01:27:42.582Z,16.97
2019-03-25T01:30:14.581Z,15.00
2019-03-25T01:32:46.210Z,13.57
2019-03-25T01:35:17.986Z,13.50
2019-03-25T01:37:49.710Z,13.47
2019-03-25T01:40:21.486Z,12.57
2019-03-25T01:42:53.226Z,12.37
2019-03-25T01:45:25.018Z,14.50
2019-03-25T01:47:56.754Z,14.47
2019-03-25T01:50:28.526Z,13.97
2019-03-25T01:53:00.258Z,14.70
2019-03-25T01:55:32.074Z,14.87
2019-03-25T01:58:03.780Z,15.33
2019-03-25T02:00:35.766Z,17.03
2019-03-25T02:03:08.706Z,16.87
2019-03-25T02:05:40.756Z,16.57
2019-03-25T02:08:11.557Z,16.63
2019-03-25T02:10:42.984Z,17.70
2019-03-25T02:13:14.778Z,18.30
2019-03-25T02:15:46.517Z,19.70
2019-03-25T02:18:18.262Z,20.03
2019-03-25T02:20:50.027Z,20.07
2019-03-25T02:23:22.084Z,21.30
2019-03-25T02:25:53.883Z,20.17
2019-03-25T02:28:25.709Z,17.93
2019-03-25T02:30:57.626Z,19.93
2019-03-25T02:33:29.355Z,19.80
2019-03-25T02:36:01.126Z,20.20
2019-03-25T02:38:32.735Z,20.20
2019-03-25T02:41:04.802Z,24.50
2019-03-25T02:43:36.579Z,26.63
2019-03-25T02:46:08.643Z,26.00
2019-03-25T02:48:40.390Z,21.23
2019-03-25T02:51:13.231Z,19.63
2019-03-25T02:53:44.984Z,17.40
2019-03-25T02:56:16.695Z,18.03
2019-03-25T02:58:48.503Z,17.03
2019-03-25T03:01:20.231Z,18.50
2019-03-25T03:03:52.118Z,19.00
2019-03-25T03:06:23.690Z,17.93
2019-03-25T03:08:55.415Z,16.63
2019-03-25T03:11:27.462Z,19.47
2019-03-25T03:13:59.207Z,19.17
2019-03-25T03:16:31.262Z,18.10
2019-03-25T03:19:02.944Z,17.33
2019-03-25T03:21:34.700Z,18.30
2019-03-25T03:24:05.363Z,20.07
2019-03-25T03:26:37.008Z,19.50
2019-03-25T03:29:08.743Z,19.20
2019-03-25T03:31:40.531Z,17.33
2019-03-25T03:34:12.271Z,17.03
2019-03-25T03:36:44.055Z,15.93
2019-03-25T03:39:15.782Z,17.37
2019-03-25T03:41:47.947Z,16.70
2019-03-25T03:44:19.734Z,16.97
2019-03-25T03:46:51.484Z,15.77
2019-03-25T03:49:23.558Z,14.93
2019-03-25T03:51:56.790Z,13.80
2019-03-25T03:54:28.492Z,13.80
2019-03-25T03:56:59.279Z,14.27
2019-03-25T03:59:30.787Z,14.20
2019-03-25T04:02:02.550Z,13.47
2019-03-25T04:04:34.295Z,13.03
2019-03-25T04:07:06.326Z,13.43
2019-03-25T04:09:38.064Z,11.43
2019-03-25T04:12:09.771Z,12.10
2019-03-25T04:14:41.562Z,12.10
2019-03-25T04:17:13.378Z,11.03
2019-03-25T04:19:45.551Z,10.70
2019-03-25T04:22:17.218Z,10.60
2019-03-25T04:24:48.975Z,10.80
2019-03-25T04:27:23.013Z,11.13
2019-03-25T04:29:55.014Z,11.07
2019-03-25T04:32:26.752Z,11.97
2019-03-25T04:34:58.747Z,12.33
2019-03-25T04:37:30.478Z,10.53
2019-03-25T04:40:02.322Z,11.57
2019-03-25T04:42:34.190Z,10.07
2019-03-25T04:45:06.058Z,9.93
2019-03-25T04:47:37.824Z,10.23
2019-03-25T04:50:11.584Z,10.03
2019-03-25T04:52:44.981Z,10.93
2019-03-25T04:55:16.786Z,11.10
2019-03-25T04:57:48.502Z,11.17
2019-03-25T05:00:34.039Z,10.73
2019-03-25T05:03:06.251Z,9.83
2019-03-25T05:05:38.446Z,10.97
2019-03-25T05:08:10.287Z,10.20
2019-03-25T05:10:42.286Z,10.37
2019-03-25T05:13:14.003Z,9.73
2019-03-25T05:15:45.785Z,10.80
2019-03-25T05:18:17.514Z,8.60
2019-03-25T05:20:49.715Z,8.70
2019-03-25T05:23:21.640Z,9.43
2019-03-25T05:25:57.618Z,8.47
2019-03-25T05:28:29.890Z,9.23
2019-03-25T05:31:01.682Z,8.90
2019-03-25T05:33:33.778Z,8.50
2019-03-25T05:36:05.686Z,9.43
2019-03-25T05:38:37.546Z,9.30
2019-03-25T05:41:09.414Z,9.07
2019-03-25T05:43:41.706Z,9.37
2019-03-25T05:46:13.491Z,9.03
2019-03-25T05:48:47.285Z,9.57
2019-03-25T05:51:19.158Z,9.90
2019-03-25T05:53:51.110Z,10.20
2019-03-25T05:56:22.855Z,10.60
2019-03-25T05:58:54.790Z,9.93
2019-03-25T06:01:27.428Z,9.27
2019-03-25T06:03:59.103Z,10.37
2019-03-25T06:06:30.722Z,8.93
2019-03-25T06:09:04.832Z,9.90
2019-03-25T06:11:38.606Z,9.10
2019-03-25T06:14:11.510Z,9.83
2019-03-25T06:16:43.702Z,9.37
2019-03-25T06:19:16.362Z,9.30
2019-03-25T06:21:48.410Z,9.20
2019-03-25T06:24:20.098Z,14.13
2019-03-25T06:26:51.704Z,33.77
2019-03-25T06:29:23.590Z,11.43
2019-03-25T06:31:55.436Z,10.00
2019-03-25T06:34:27.294Z,24.37
2019-03-25T06:36:57.899Z,15.47
2019-03-25T06:39:29.282Z,10.80
2019-03-25T06:42:03.907Z,9.83
2019-03-25T06:44:35.870Z,9.37
2019-03-25T06:47:07.699Z,9.53
2019-03-25T06:49:39.402Z,8.87
2019-03-25T06:52:11.146Z,9.07
2019-03-25T06:54:43.740Z,7.63
2019-03-25T06:57:25.170Z,8.07
2019-03-25T06:59:49.815Z,8.50
2019-03-25T07:02:21.944Z,8.33
2019-03-25T07:04:53.766Z,8.00
2019-03-25T07:07:25.508Z,9.10
2019-03-25T07:09:58.226Z,8.27
2019-03-25T07:12:29.938Z,7.50
2019-03-25T07:15:01.825Z,6.97
2019-03-25T07:17:33.407Z,6.90
2019-03-25T07:20:05.427Z,8.80
2019-03-25T07:22:37.398Z,7.63
2019-03-25T07:25:09.130Z,8.03
2019-03-25T07:27:40.933Z,8.43
2019-03-25T07:30:11.972Z,8.90
2019-03-25T07:32:43.618Z,8.97
2019-03-25T07:35:15.398Z,7.37
2019-03-25T07:37:47.150Z,8.37
2019-03-25T07:40:18.801Z,7.57
2019-03-25T07:42:50.666Z,8.60
2019-03-25T07:45:22.378Z,8.17
2019-03-25T07:47:53.858Z,6.83
2019-03-25T07:50:25.495Z,7.47
2019-03-25T07:52:57.282Z,8.10
2019-03-25T07:55:29.271Z,8.60
2019-03-25T07:58:01.047Z,8.63
2019-03-25T08:00:32.639Z,8.63
2019-03-25T08:03:04.429Z,7.97
2019-03-25T08:05:36.288Z,10.27
2019-03-25T08:08:08.059Z,9.10
2019-03-25T08:10:39.903Z,8.80
2019-03-25T08:13:11.675Z,8.07
2019-03-25T08:15:43.506Z,8.20
2019-03-25T08:18:14.189Z,7.47
2019-03-25T08:20:45.477Z,8.57
2019-03-25T08:23:17.053Z,9.67
2019-03-25T08:25:48.550Z,8.80
2019-03-25T08:28:20.083Z,10.07
2019-03-25T08:30:51.590Z,7.20
2019-03-25T08:33:23.382Z,6.77
2019-03-25T08:35:56.861Z,7.67
2019-03-25T08:38:28.638Z,7.60
2019-03-25T08:41:00.370Z,7.07
2019-03-25T08:43:33.782Z,6.83
2019-03-25T08:46:05.332Z,5.90
2019-03-25T08:48:36.886Z,5.60
2019-03-25T08:51:11.620Z,5.23
2019-03-25T08:53:43.153Z,6.10
2019-03-25T08:56:13.758Z,7.67
2019-03-25T08:58:45.370Z,6.60
2019-03-25T09:01:16.109Z,5.67
2019-03-25T09:03:47.553Z,5.57
2019-03-25T09:06:18.304Z,6.87
2019-03-25T09:08:49.869Z,7.27
2019-03-25T09:11:21.572Z,7.23
2019-03-25T09:13:53.364Z,6.77
2019-03-25T09:16:24.101Z,7.30
2019-03-25T09:18:55.563Z,5.83
2019-03-25T09:21:27.266Z,7.13
2019-03-25T09:23:59.598Z,7.63
2019-03-25T09:26:31.887Z,7.10
2019-03-25T09:29:03.526Z,6.40
2019-03-25T09:31:36.973Z,6.13
2019-03-25T09:34:08.248Z,6.50
2019-03-25T09:36:39.798Z,5.83
2019-03-25T09:39:11.574Z,5.80
2019-03-25T09:41:43.299Z,6.23
2019-03-25T09:44:14.969Z,6.90
2019-03-25T09:46:46.870Z,6.43
2019-03-25T09:49:18.574Z,6.93
2019-03-25T09:51:49.250Z,7.07
2019-03-25T09:54:20.578Z,6.13
2019-03-25T09:56:52.098Z,6.10
2019-03-25T09:59:23.649Z,7.13
2019-03-25T10:01:54.274Z,8.10
2019-03-25T10:04:24.693Z,6.33
2019-03-25T10:06:55.071Z,5.83
2019-03-25T10:09:25.486Z,5.37
2019-03-25T10:11:57.440Z,6.30
2019-03-25T10:14:29.299Z,5.27
2019-03-25T10:16:59.979Z,5.95
2019-03-25T10:19:32.130Z,5.12
2019-03-25T10:22:04.471Z,6.03
2019-03-25T10:24:36.878Z,5.20
2019-03-25T10:27:08.681Z,4.43
2019-03-25T10:29:39.353Z,4.70
2019-03-25T10:32:11.414Z,5.10
2019-03-25T10:34:43.199Z,8.00
2019-03-25T10:37:15.126Z,4.30
2019-03-25T10:39:46.893Z,4.47
2019-03-25T10:42:18.666Z,4.50
2019-03-25T10:44:50.416Z,3.97
2019-03-25T10:47:22.171Z,3.97
2019-03-25T10:49:55.445Z,4.10
2019-03-25T10:52:27.266Z,3.77
2019-03-25T10:54:59.511Z,4.77
2019-03-25T10:57:32.919Z,4.17
2019-03-25T11:00:05.212Z,4.47
2019-03-25T11:02:37.569Z,4.03
2019-03-25T11:05:09.644Z,3.93
2019-03-25T11:10:12.057Z,3.90
2019-03-25T11:12:43.856Z,4.77
2019-03-25T11:15:16.109Z,4.10
2019-03-25T11:17:47.891Z,4.07
2019-03-25T11:20:19.753Z,3.67
2019-03-25T11:22:51.509Z,3.70
2019-03-25T11:25:23.258Z,7.37
2019-03-25T11:27:54.959Z,4.03
2019-03-25T11:31:03.219Z,3.27
2019-03-25T11:33:34.918Z,3.20
2019-03-25T11:36:06.862Z,3.60
2019-03-25T11:38:37.759Z,3.80
2019-03-25T11:41:09.346Z,3.20
2019-03-25T11:43:41.099Z,3.83
2019-03-25T11:46:12.990Z,3.47
2019-03-25T11:48:44.862Z,4.10
2019-03-25T11:51:15.741Z,3.37
2019-03-25T11:53:47.533Z,3.63
2019-03-25T11:56:18.193Z,3.40
2019-03-25T11:58:49.822Z,3.50
2019-03-25T12:01:22.542Z,3.33
2019-03-25T12:03:54.362Z,3.07
2019-03-25T12:06:26.017Z,3.17
2019-03-25T12:08:57.608Z,3.20
2019-03-25T12:11:28.541Z,3.20
2019-03-25T12:14:00.061Z,5.63
2019-03-25T12:16:31.858Z,2.57
2019-03-25T12:19:03.954Z,2.00
2019-03-25T12:21:35.679Z,2.20
2019-03-25T12:24:07.503Z,1.70
2019-03-25T12:26:38.391Z,1.37
2019-03-25T12:29:09.918Z,2.23
2019-03-25T12:31:41.583Z,1.60
2019-03-25T12:34:13.385Z,1.37
2019-03-25T12:36:45.066Z,1.50
2019-03-25T12:39:16.969Z,1.80
2019-03-25T12:41:48.692Z,1.60
2019-03-25T12:44:19.650Z,1.80
2019-03-25T12:46:51.184Z,1.60
2019-03-25T12:49:23.086Z,2.30
2019-03-25T12:51:54.809Z,1.60
2019-03-25T12:54:26.628Z,2.27
2019-03-25T12:56:58.334Z,2.50
2019-03-25T12:59:40.492Z,2.50
2019-03-25T13:02:03.901Z,2.57
2019-03-25T13:04:35.762Z,3.40
2019-03-25T13:07:06.455Z,2.50
2019-03-25T13:09:38.049Z,2.57
2019-03-25T13:12:09.804Z,2.60
2019-03-25T13:14:41.587Z,2.33
2019-03-25T13:17:13.318Z,2.20
2019-03-25T13:19:45.109Z,2.50
2019-03-25T13:22:16.680Z,2.50
2019-03-25T13:24:48.401Z,2.60
2019-03-25T13:27:20.195Z,2.60
2019-03-25T13:29:52.951Z,1.97
2019-03-25T13:32:25.750Z,2.50
2019-03-25T13:34:57.374Z,2.70
2019-03-25T13:37:29.169Z,2.40
2019-03-25T13:40:00.790Z,2.47
2019-03-25T13:42:32.533Z,2.00
2019-03-25T13:45:04.194Z,2.00
2019-03-25T13:47:35.977Z,1.97
2019-03-25T13:50:08.237Z,1.97
2019-03-25T13:52:39.991Z,1.77
2019-03-25T13:55:11.954Z,1.60
2019-03-25T13:57:43.735Z,1.97
2019-03-25T14:00:16.411Z,1.80
2019-03-25T14:02:48.194Z,1.90
2019-03-25T14:05:19.822Z,1.93
2019-03-25T14:07:51.694Z,2.10
2019-03-25T14:10:23.326Z,2.87
2019-03-25T14:12:55.102Z,3.40
2019-03-25T14:15:26.895Z,2.60
2019-03-25T14:17:57.623Z,2.47
2019-03-25T14:20:29.166Z,2.63
2019-03-25T14:23:00.778Z,2.70
2019-03-25T14:25:32.467Z,2.90
2019-03-25T14:28:04.231Z,2.87
2019-03-25T14:30:34.981Z,3.60
2019-03-25T14:33:06.631Z,2.80
2019-03-25T14:35:38.610Z,3.03
2019-03-25T14:38:10.319Z,3.13
2019-03-25T14:40:42.102Z,3.13
2019-03-25T14:43:13.630Z,3.50
2019-03-25T14:45:45.422Z,4.50
2019-03-25T14:48:17.061Z,4.70
2019-03-25T14:50:48.811Z,4.53
2019-03-25T14:53:20.353Z,4.80
2019-03-25T14:55:52.061Z,5.03
2019-03-25T14:58:22.726Z,4.97
2019-03-25T15:00:54.245Z,5.90
2019-03-25T15:03:25.765Z,5.13
2019-03-25T15:05:57.542Z,5.43
2019-03-25T15:08:29.280Z,5.80
2019-03-25T15:11:01.054Z,6.67
2019-03-25T15:13:32.801Z,5.77
2019-03-25T15:16:04.670Z,5.93
2019-03-25T15:18:36.414Z,6.50
2019-03-25T15:21:08.098Z,6.10
2019-03-25T15:23:39.693Z,6.17
2019-03-25T15:26:11.402Z,6.93
2019-03-25T15:28:43.038Z,6.87
2019-03-25T15:31:14.722Z,7.27
2019-03-25T15:33:46.222Z,8.23
2019-03-25T15:36:18.105Z,7.00
2019-03-25T15:38:49.793Z,7.70
2019-03-25T15:41:21.581Z,7.83
2019-03-25T15:43:53.293Z,7.77
2019-03-25T15:46:23.999Z,7.10
2019-03-25T15:48:55.489Z,7.67
2019-03-25T15:51:27.038Z,7.70
2019-03-25T15:53:58.900Z,7.20
2019-03-25T15:56:31.014Z,7.97
2019-03-25T15:59:03.089Z,8.50
2019-03-25T16:01:34.837Z,7.90
2019-03-25T16:04:06.546Z,8.43
2019-03-25T16:06:38.875Z,8.83
2019-03-25T16:09:10.773Z,8.47
2019-03-25T16:11:42.494Z,8.07
2019-03-25T16:14:14.194Z,9.17
2019-03-25T16:16:45.993Z,7.20
2019-03-25T16:19:17.738Z,7.77
2019-03-25T16:21:51.047Z,7.43
2019-03-25T16:24:23.162Z,7.27
2019-03-25T16:26:54.890Z,7.77
2019-03-25T16:29:26.604Z,8.00
2019-03-25T16:31:58.374Z,7.47
2019-03-25T16:34:30.111Z,7.57
2019-03-25T16:37:01.666Z,7.50
2019-03-25T16:39:33.270Z,7.67
2019-03-25T16:42:05.212Z,8.67
2019-03-25T16:44:36.717Z,7.90
2019-03-25T16:47:08.574Z,8.43
2019-03-25T16:49:40.064Z,7.93
2019-03-25T16:52:11.711Z,9.50
2019-03-25T16:54:43.462Z,7.93
2019-03-25T16:57:15.278Z,8.63
2019-03-25T16:59:46.787Z,9.93
2019-03-25T17:02:17.486Z,8.87
2019-03-25T17:04:47.878Z,8.33
2019-03-25T17:07:19.522Z,10.43
2019-03-25T17:09:51.122Z,9.63
2019-03-25T17:12:22.861Z,9.67
2019-03-25T17:14:53.586Z,10.53
2019-03-25T17:17:25.496Z,14.77
2019-03-25T17:19:57.176Z,11.93
2019-03-25T17:22:29.026Z,9.03
2019-03-25T17:25:01.236Z,11.03
2019-03-25T17:27:33.893Z,14.37
2019-03-25T17:30:05.694Z,10.73
2019-03-25T17:32:37.443Z,11.13
2019-03-25T17:35:08.526Z,11.20
2019-03-25T17:37:39.870Z,10.40
2019-03-25T17:40:10.828Z,10.23
2019-03-25T17:42:41.318Z,10.60
2019-03-25T17:45:13.422Z,9.80
2019-03-25T17:47:45.174Z,7.23
2019-03-25T17:50:16.067Z,9.00
2019-03-25T17:52:47.674Z,9.70
2019-03-25T17:55:19.465Z,10.57
2019-03-25T17:57:52.358Z,9.83
2019-03-25T18:00:57.654Z,11.53
2019-03-25T18:03:29.462Z,12.23
2019-03-25T18:06:00.407Z,10.10
2019-03-25T18:08:32.178Z,10.77
2019-03-25T18:11:03.614Z,10.90
2019-03-25T18:13:35.685Z,10.23
2019-03-25T18:16:06.730Z,8.50
2019-03-25T18:18:38.582Z,9.20
2019-03-25T18:21:11.216Z,9.03
2019-03-25T18:23:43.398Z,8.57
2019-03-25T18:26:15.685Z,7.87
2019-03-25T18:28:47.522Z,7.30
2019-03-25T18:31:18.574Z,7.93
2019-03-25T18:33:49.070Z,7.50
2019-03-25T18:36:20.570Z,7.57
2019-03-25T18:38:52.310Z,7.23
2019-03-25T18:41:23.878Z,10.33
2019-03-25T18:43:55.670Z,9.00
2019-03-25T18:46:26.389Z,12.33
2019-03-25T18:48:57.838Z,15.67
2019-03-25T18:51:29.598Z,11.17
2019-03-25T18:54:01.402Z,9.40
2019-03-25T18:56:33.503Z,7.10
2019-03-25T18:59:06.310Z,7.27
2019-03-25T19:01:38.074Z,6.50
2019-03-25T19:04:09.706Z,6.33
2019-03-25T19:07:01.467Z,6.57
2019-03-25T19:09:34.025Z,7.00
2019-03-25T19:12:06.047Z,7.47
2019-03-25T19:14:37.774Z,6.13
2019-03-25T19:17:09.503Z,7.07
2019-03-25T19:19:41.301Z,6.47
2019-03-25T19:22:13.134Z,7.30
2019-03-25T19:24:44.715Z,7.70
2019-03-25T19:27:17.515Z,8.07
2019-03-25T19:29:48.373Z,9.90
2019-03-25T19:32:18.769Z,9.57
2019-03-25T19:34:49.144Z,8.43
2019-03-25T19:37:20.558Z,7.57
2019-03-25T19:39:52.081Z,7.93
2019-03-25T19:42:23.649Z,7.80
2019-03-25T19:44:54.261Z,8.30
2019-03-25T19:47:24.642Z,8.37
2019-03-25T19:49:56.110Z,8.07
2019-03-25T19:52:26.721Z,6.90
2019-03-25T19:54:58.014Z,7.20
2019-03-25T19:57:29.529Z,6.67
2019-03-25T20:00:01.129Z,6.83
2019-03-25T20:02:34.076Z,8.03
2019-03-25T20:05:06.485Z,6.93
2019-03-25T20:07:38.062Z,7.97
2019-03-25T20:10:15.320Z,6.60
2019-03-25T20:12:46.954Z,7.10
2019-03-25T20:15:18.630Z,8.03
2019-03-25T20:17:50.142Z,6.60
2019-03-25T20:20:21.699Z,6.50
2019-03-25T20:22:53.480Z,4.70
2019-03-25T20:25:25.077Z,5.33
2019-03-25T20:27:55.754Z,5.50
2019-03-25T20:30:27.338Z,6.80
2019-03-25T20:33:01.334Z,5.50
2019-03-25T20:35:31.770Z,4.40
2019-03-25T20:38:03.187Z,4.47
2019-03-25T20:40:34.751Z,5.13
2019-03-25T20:43:06.346Z,8.43
2019-03-25T20:45:38.977Z,6.30
2019-03-25T20:48:10.526Z,7.17
2019-03-25T20:50:42.086Z,6.20
2019-03-25T20:53:13.734Z,7.07
2019-03-25T20:55:45.487Z,7.37
2019-03-25T20:58:17.774Z,9.23
2019-03-25T21:00:54.700Z,8.80
2019-03-25T21:03:26.442Z,9.87
2019-03-25T21:05:58.105Z,12.90
2019-03-25T21:08:29.897Z,8.77
2019-03-25T21:11:01.606Z,9.37
2019-03-25T21:13:33.526Z,8.47
2019-03-25T21:16:05.364Z,9.23
2019-03-25T21:18:37.348Z,10.00
2019-03-25T21:21:09.640Z,12.17
2019-03-25T21:23:41.322Z,11.03
2019-03-25T21:26:12.974Z,10.93
2019-03-25T21:28:44.623Z,10.83
2019-03-25T21:31:16.540Z,10.00
2019-03-25T21:33:48.540Z,9.97
2019-03-25T21:36:20.345Z,9.67
2019-03-25T21:38:52.885Z,9.77
2019-03-25T21:41:24.462Z,9.90
2019-03-25T21:43:56.034Z,10.63
2019-03-25T21:46:27.527Z,10.87
2019-03-25T21:48:59.206Z,9.93
2019-03-25T21:51:30.837Z,9.90
2019-03-25T21:54:03.524Z,10.73
2019-03-25T21:56:34.261Z,10.93
2019-03-25T21:59:05.814Z,10.30
2019-03-25T22:01:37.542Z,9.70
2019-03-25T22:04:09.110Z,10.17
2019-03-25T22:06:40.702Z,10.37
2019-03-25T22:09:12.278Z,10.50
2019-03-25T22:11:43.891Z,9.63
2019-03-25T22:14:15.385Z,10.47
2019-03-25T22:16:47.001Z,10.23
2019-03-25T22:19:17.662Z,11.00
2019-03-25T22:21:49.001Z,10.70
2019-03-25T22:24:20.574Z,11.33
2019-03-25T22:26:52.077Z,11.43
2019-03-25T22:29:23.646Z,10.63
2019-03-25T22:31:55.189Z,11.37
2019-03-25T22:34:26.783Z,10.17
2019-03-25T22:36:58.400Z,12.23
2019-03-25T22:39:29.926Z,11.87
2019-03-25T22:42:01.646Z,11.80
2019-03-25T22:44:33.161Z,11.47
2019-03-25T22:47:04.716Z,11.47
2019-03-25T22:49:36.232Z,11.03
2019-03-25T22:52:07.766Z,11.73
2019-03-25T22:54:39.282Z,11.00
2019-03-25T22:57:11.218Z,11.77
2019-03-25T22:59:42.729Z,10.23
2019-03-25T23:02:14.246Z,10.30
2019-03-25T23:04:45.815Z,10.73
2019-03-25T23:07:17.323Z,11.10
2019-03-25T23:09:48.835Z,10.50
2019-03-25T23:12:20.481Z,10.93
2019-03-25T23:14:51.974Z,11.03
2019-03-25T23:17:23.486Z,10.50
2019-03-25T23:20:06.643Z,11.17
2019-03-25T23:22:38.148Z,11.30
2019-03-25T23:25:09.674Z,11.40
2019-03-25T23:27:41.182Z,12.83
2019-03-25T23:30:13.490Z,11.17
2019-03-25T23:32:46.824Z,11.37
2019-03-25T23:35:18.456Z,11.00
2019-03-25T23:37:51.018Z,11.93
2019-03-25T23:40:22.617Z,11.87
2019-03-25T23:42:54.162Z,12.47
2019-03-25T23:45:25.742Z,11.97
2019-03-25T23:47:57.250Z,12.47
2019-03-25T23:50:28.832Z,12.13
2019-03-25T23:53:00.342Z,12.40
2019-03-25T23:55:30.936Z,13.17
2019-03-25T23:58:02.262Z,12.10
